createdAt,value
2019-03-04T08:04:10.356Z,13.46
2019-03-04T08:09:46.711Z,13.57
2019-03-04T08:14:53.241Z,13.70
2019-03-04T08:20:07.498Z,13.67
2019-03-04T08:25:21.814Z,13.85
2019-03-04T08:30:32.932Z,14.00
2019-03-04T08:35:41.401Z,13.85
2019-03-04T08:40:47.561Z,13.75
2019-03-04T08:45:53.434Z,13.69
2019-03-04T08:51:02.234Z,13.73
2019-03-04T08:56:07.816Z,13.92
2019-03-04T09:01:19.973Z,14.11
2019-03-04T09:06:26.137Z,14.24
2019-03-04T09:11:32.423Z,14.21
2019-03-04T09:16:43.135Z,14.33
2019-03-04T09:21:54.821Z,14.50
2019-03-04T09:27:00.729Z,14.79
2019-03-04T09:32:11.335Z,15.55
2019-03-04T09:37:18.875Z,15.70
2019-03-04T09:42:33.765Z,15.41
2019-03-04T09:47:39.635Z,15.18
2019-03-04T09:52:51.149Z,15.47
2019-03-04T09:57:57.668Z,14.84
2019-03-04T10:03:22.766Z,15.27
2019-03-04T10:08:51.972Z,15.60
2019-03-04T10:14:35.595Z,15.99
2019-03-04T10:20:26.468Z,16.22
2019-03-04T10:26:09.904Z,16.05
2019-03-04T10:31:49.419Z,15.99
2019-03-04T10:37:46.856Z,15.73
2019-03-04T10:43:34.605Z,15.52
2019-03-04T10:48:40.167Z,15.43
2019-03-04T10:53:46.395Z,15.38
2019-03-04T10:58:53.156Z,15.21
2019-03-04T11:04:04.523Z,15.33
2019-03-04T11:09:10.411Z,15.57
2019-03-04T11:14:17.213Z,15.43
2019-03-04T11:19:23.687Z,15.47
2019-03-04T11:24:36.128Z,15.62
2019-03-04T11:29:48.627Z,15.70
2019-03-04T11:34:56.220Z,15.39
2019-03-04T11:40:12.610Z,15.79
2019-03-04T11:45:25.220Z,16.12
2019-03-04T11:50:36.637Z,16.00
2019-03-04T11:55:43.842Z,15.69
2019-03-04T12:00:59.384Z,15.75
2019-03-04T12:06:08.760Z,15.80
2019-03-04T12:11:21.130Z,16.03
2019-03-04T12:16:23.943Z,16.31
2019-03-04T12:21:29.758Z,15.96
2019-03-04T12:26:36.414Z,16.23
2019-03-04T12:32:09.255Z,16.08
2019-03-04T12:37:19.380Z,15.78
2019-03-04T12:42:25.601Z,15.02
2019-03-04T12:47:31.662Z,15.02
2019-03-04T12:52:38.354Z,15.07
2019-03-04T12:57:45.702Z,14.85
2019-03-04T13:02:57.966Z,14.83
2019-03-04T13:08:01.158Z,14.65
2019-03-04T13:13:08.670Z,14.95
2019-03-04T13:18:15.508Z,14.75
2019-03-04T13:23:21.381Z,14.61
2019-03-04T13:28:29.013Z,14.72
2019-03-04T13:33:34.907Z,14.43
2019-03-04T13:38:40.669Z,14.53
2019-03-04T13:43:46.780Z,14.25
2019-03-04T13:48:53.251Z,14.17
2019-03-04T13:54:14.283Z,13.67
2019-03-04T13:59:21.889Z,13.71
2019-03-04T14:04:27.473Z,13.69
2019-03-04T14:09:35.623Z,13.69
2019-03-04T14:14:41.959Z,13.47
2019-03-04T14:19:49.867Z,13.74
2019-03-04T14:24:55.756Z,13.27
2019-03-04T14:30:07.829Z,13.21
2019-03-04T14:35:14.475Z,13.40
2019-03-04T14:40:23.258Z,13.29
2019-03-04T14:45:30.700Z,13.41
2019-03-04T14:50:38.115Z,13.47
2019-03-04T14:55:44.375Z,13.54
2019-03-04T15:00:52.171Z,13.26
2019-03-04T15:06:06.513Z,13.27
2019-03-04T15:11:07.998Z,13.16
2019-03-04T15:16:19.454Z,13.05
2019-03-04T15:21:29.395Z,13.12
2019-03-04T15:26:44.275Z,12.92
2019-03-04T15:31:51.245Z,12.83
2019-03-04T15:37:02.956Z,12.74
2019-03-04T15:42:09.425Z,12.58
2019-03-04T15:47:20.120Z,12.45
2019-03-04T15:52:28.098Z,12.42
2019-03-04T15:57:34.052Z,12.43
2019-03-04T16:02:39.928Z,12.34
2019-03-04T16:07:48.673Z,12.40
2019-03-04T16:12:56.123Z,12.68
2019-03-04T16:18:07.352Z,12.36
2019-03-04T16:23:15.301Z,12.22
2019-03-04T16:28:29.886Z,12.27
2019-03-04T16:33:40.308Z,11.89
2019-03-04T16:38:45.947Z,11.87
2019-03-04T16:43:52.771Z,11.79
2019-03-04T16:49:03.349Z,11.83
2019-03-04T16:54:09.677Z,11.90
2019-03-04T16:59:18.750Z,11.25
2019-03-04T17:04:27.507Z,10.12
2019-03-04T17:09:33.858Z,10.19
2019-03-04T17:14:44.274Z,9.83
2019-03-04T17:19:52.130Z,9.71
2019-03-04T17:25:01.536Z,9.84
2019-03-04T17:30:13.438Z,9.79
2019-03-04T17:35:21.610Z,9.73
2019-03-04T17:40:27.848Z,9.84
2019-03-04T17:45:41.526Z,9.87
2019-03-04T17:50:47.127Z,9.80
2019-03-04T17:55:53.385Z,9.68
2019-03-04T18:01:05.516Z,9.76
2019-03-04T18:06:11.454Z,9.61
2019-03-04T18:11:17.620Z,9.52
2019-03-04T18:16:29.016Z,9.53
2019-03-04T18:21:37.222Z,9.69
2019-03-04T18:27:16.401Z,7.65
2019-03-04T18:32:52.851Z,7.02
2019-03-04T18:38:28.241Z,6.84
2019-03-04T18:44:06.845Z,6.70
2019-03-04T18:49:15.035Z,6.80
2019-03-04T18:54:23.892Z,6.67
2019-03-04T18:59:32.185Z,6.73
2019-03-04T19:04:40.183Z,6.86
2019-03-04T19:09:47.766Z,6.90
2019-03-04T19:14:55.585Z,7.05
2019-03-04T19:20:06.459Z,6.81
2019-03-04T19:25:19.159Z,6.88
2019-03-04T19:30:28.801Z,6.82
2019-03-04T19:35:34.941Z,6.81
2019-03-04T19:40:43.918Z,6.64
2019-03-04T19:45:50.028Z,6.48
2019-03-04T19:50:55.925Z,6.42
2019-03-04T19:56:06.474Z,6.61
2019-03-04T20:01:16.260Z,6.55
2019-03-04T20:06:23.908Z,6.36
2019-03-04T20:11:34.535Z,6.34
2019-03-04T20:16:42.636Z,6.12
2019-03-04T20:21:48.921Z,6.22
2019-03-04T20:26:59.242Z,6.26
2019-03-04T20:32:09.261Z,6.14
2019-03-04T20:37:16.397Z,6.03
2019-03-04T20:42:25.333Z,5.98
2019-03-04T20:47:51.321Z,6.08
2019-03-04T20:52:59.922Z,5.84
2019-03-04T20:58:10.928Z,5.77
2019-03-04T21:03:18.263Z,5.92
2019-03-04T21:08:30.506Z,5.85
2019-03-04T21:13:38.978Z,5.89
2019-03-04T21:18:45.204Z,5.92
2019-03-04T21:23:53.207Z,5.84
2019-03-04T21:30:00.362Z,5.79
2019-03-04T21:35:55.305Z,5.72
2019-03-04T21:41:38.318Z,5.87
2019-03-04T21:47:18.813Z,5.66
2019-03-04T21:52:49.565Z,5.66
2019-03-04T21:58:00.045Z,5.55
2019-03-04T22:03:18.381Z,5.50
2019-03-04T22:08:24.218Z,5.52
2019-03-04T22:13:34.323Z,5.52
2019-03-04T22:18:42.170Z,5.60
2019-03-04T22:23:48.633Z,5.66
2019-03-04T22:28:57.662Z,5.45
2019-03-04T22:34:10.244Z,5.54
2019-03-04T22:39:17.079Z,5.68
2019-03-04T22:44:25.403Z,5.69
2019-03-04T22:49:38.313Z,5.62
2019-03-04T22:54:44.122Z,5.72
2019-03-04T22:59:49.729Z,5.60
2019-03-04T23:05:09.417Z,5.72
2019-03-04T23:10:29.854Z,5.46
2019-03-04T23:15:35.394Z,5.67
2019-03-04T23:20:40.907Z,5.58
2019-03-04T23:25:46.435Z,5.56
2019-03-04T23:31:03.356Z,5.64
2019-03-04T23:36:10.647Z,5.54
2019-03-04T23:41:16.203Z,5.59
2019-03-04T23:52:07.014Z,5.68
2019-03-04T23:57:13.033Z,5.63
